sensor_id;sensor_type;location;lat;lon;timestamp;P1;durP1;ratioP1;P2;durP2;ratioP2
2888;SDS011;1453;42.708;23.282;2023-02-15T00:01:57;46.83;;;25.10;;
2888;SDS011;1453;42.708;23.282;2023-02-15T00:04:24;62.27;;;28.90;;
2888;SDS011;1453;42.708;23.282;2023-02-15T00:07:10;51.72;;;26.35;;
2888;SDS011;1453;42.708;23.282;2023-02-15T00:09:36;49.45;;;28.42;;
2888;SDS011;1453;42.708;23.282;2023-02-15T00:12:02;57.60;;;28.93;;
2888;SDS011;1453;42.708;23.282;2023-02-15T00:14:28;50.03;;;26.00;;
2888;SDS011;1453;42.708;23.282;2023-02-15T00:16:54;49.40;;;28.10;;
2888;SDS011;1453;42.708;23.282;2023-02-15T00:19:20;52.03;;;28.02;;
2888;SDS011;1453;42.708;23.282;2023-02-15T00:21:47;59.92;;;28.58;;
2888;SDS011;1453;42.708;23.282;2023-02-15T00:24:14;51.83;;;26.20;;
2888;SDS011;1453;42.708;23.282;2023-02-15T00:26:42;58.80;;;29.10;;
2888;SDS011;1453;42.708;23.282;2023-02-15T00:29:09;52.15;;;27.08;;
2888;SDS011;1453;42.708;23.282;2023-02-15T00:31:36;50.42;;;26.58;;
2888;SDS011;1453;42.708;23.282;2023-02-15T00:34:09;54.67;;;28.48;;
2888;SDS011;1453;42.708;23.282;2023-02-15T00:36:39;56.75;;;28.55;;
2888;SDS011;1453;42.708;23.282;2023-02-15T00:39:05;40.67;;;21.17;;
2888;SDS011;1453;42.708;23.282;2023-02-15T00:41:31;51.38;;;26.58;;
2888;SDS011;1453;42.708;23.282;2023-02-15T00:43:57;46.60;;;24.92;;
2888;SDS011;1453;42.708;23.282;2023-02-15T00:46:23;50.88;;;27.35;;
2888;SDS011;1453;42.708;23.282;2023-02-15T00:48:49;57.60;;;30.27;;
2888;SDS011;1453;42.708;23.282;2023-02-15T00:51:15;54.80;;;29.00;;
2888;SDS011;1453;42.708;23.282;2023-02-15T00:53:42;52.83;;;28.27;;
2888;SDS011;1453;42.708;23.282;2023-02-15T00:56:09;51.92;;;28.80;;
2888;SDS011;1453;42.708;23.282;2023-02-15T00:58:35;53.80;;;26.15;;
2888;SDS011;1453;42.708;23.282;2023-02-15T01:01:03;57.40;;;28.77;;
2888;SDS011;1453;42.708;23.282;2023-02-15T01:03:38;54.53;;;28.95;;
2888;SDS011;1453;42.708;23.282;2023-02-15T01:06:06;51.00;;;27.52;;
2888;SDS011;1453;42.708;23.282;2023-02-15T01:08:32;57.67;;;29.58;;
2888;SDS011;1453;42.708;23.282;2023-02-15T01:11:06;49.97;;;27.65;;
2888;SDS011;1453;42.708;23.282;2023-02-15T01:13:35;53.25;;;27.40;;
2888;SDS011;1453;42.708;23.282;2023-02-15T01:16:02;50.65;;;25.52;;
2888;SDS011;1453;42.708;23.282;2023-02-15T01:18:29;52.60;;;28.00;;
2888;SDS011;1453;42.708;23.282;2023-02-15T01:20:55;49.72;;;25.85;;
2888;SDS011;1453;42.708;23.282;2023-02-15T01:23:21;55.08;;;28.63;;
2888;SDS011;1453;42.708;23.282;2023-02-15T01:25:47;44.53;;;24.97;;
2888;SDS011;1453;42.708;23.282;2023-02-15T01:28:13;53.40;;;25.77;;
2888;SDS011;1453;42.708;23.282;2023-02-15T01:30:39;46.53;;;25.33;;
2888;SDS011;1453;42.708;23.282;2023-02-15T01:33:06;51.38;;;26.60;;
2888;SDS011;1453;42.708;23.282;2023-02-15T01:35:32;53.42;;;28.23;;
2888;SDS011;1453;42.708;23.282;2023-02-15T01:37:58;47.80;;;26.88;;
2888;SDS011;1453;42.708;23.282;2023-02-15T01:40:24;52.77;;;25.20;;
2888;SDS011;1453;42.708;23.282;2023-02-15T01:42:50;42.53;;;24.55;;
2888;SDS011;1453;42.708;23.282;2023-02-15T01:50:57;50.75;;;25.42;;
2888;SDS011;1453;42.708;23.282;2023-02-15T01:55:59;48.80;;;23.52;;
2888;SDS011;1453;42.708;23.282;2023-02-15T01:58:38;41.10;;;22.75;;
2888;SDS011;1453;42.708;23.282;2023-02-15T02:01:04;46.10;;;25.60;;
2888;SDS011;1453;42.708;23.282;2023-02-15T02:03:43;54.13;;;29.40;;
2888;SDS011;1453;42.708;23.282;2023-02-15T02:06:30;48.95;;;27.20;;
2888;SDS011;1453;42.708;23.282;2023-02-15T02:08:59;50.58;;;25.65;;
2888;SDS011;1453;42.708;23.282;2023-02-15T02:11:26;54.97;;;29.65;;
2888;SDS011;1453;42.708;23.282;2023-02-15T02:13:52;46.60;;;26.10;;
2888;SDS011;1453;42.708;23.282;2023-02-15T02:16:21;47.88;;;27.20;;
2888;SDS011;1453;42.708;23.282;2023-02-15T02:31:21;50.47;;;26.35;;
2888;SDS011;1453;42.708;23.282;2023-02-15T02:37:28;44.35;;;23.85;;
2888;SDS011;1453;42.708;23.282;2023-02-15T02:40:13;47.88;;;26.83;;
2888;SDS011;1453;42.708;23.282;2023-02-15T02:43:28;53.35;;;26.33;;
2888;SDS011;1453;42.708;23.282;2023-02-15T02:46:12;50.05;;;28.13;;
2888;SDS011;1453;42.708;23.282;2023-02-15T02:48:51;50.10;;;26.05;;
2888;SDS011;1453;42.708;23.282;2023-02-15T02:51:18;48.58;;;25.60;;
2888;SDS011;1453;42.708;23.282;2023-02-15T02:53:49;36.08;;;19.73;;
2888;SDS011;1453;42.708;23.282;2023-02-15T02:56:29;41.13;;;21.90;;
2888;SDS011;1453;42.708;23.282;2023-02-15T03:01:37;43.35;;;24.40;;
2888;SDS011;1453;42.708;23.282;2023-02-15T03:04:29;45.47;;;23.77;;
2888;SDS011;1453;42.708;23.282;2023-02-15T03:07:01;45.95;;;25.05;;
2888;SDS011;1453;42.708;23.282;2023-02-15T03:09:39;47.03;;;25.23;;
2888;SDS011;1453;42.708;23.282;2023-02-15T03:12:21;45.25;;;25.73;;
2888;SDS011;1453;42.708;23.282;2023-02-15T03:14:52;46.92;;;24.88;;
2888;SDS011;1453;42.708;23.282;2023-02-15T03:17:25;42.50;;;22.75;;
2888;SDS011;1453;42.708;23.282;2023-02-15T03:19:57;43.50;;;22.33;;
2888;SDS011;1453;42.708;23.282;2023-02-15T03:22:34;43.35;;;21.77;;
2888;SDS011;1453;42.708;23.282;2023-02-15T03:25:39;46.67;;;24.40;;
2888;SDS011;1453;42.708;23.282;2023-02-15T03:28:17;40.92;;;23.83;;
2888;SDS011;1453;42.708;23.282;2023-02-15T03:30:48;44.92;;;25.05;;
2888;SDS011;1453;42.708;23.282;2023-02-15T03:33:18;44.20;;;22.67;;
2888;SDS011;1453;42.708;23.282;2023-02-15T03:35:50;41.25;;;22.67;;
2888;SDS011;1453;42.708;23.282;2023-02-15T03:38:53;40.03;;;22.30;;
2888;SDS011;1453;42.708;23.282;2023-02-15T03:41:27;43.72;;;23.27;;
2888;SDS011;1453;42.708;23.282;2023-02-15T03:44:13;35.88;;;22.27;;
2888;SDS011;1453;42.708;23.282;2023-02-15T03:46:58;46.33;;;23.92;;
2888;SDS011;1453;42.708;23.282;2023-02-15T03:52:18;39.63;;;24.15;;
2888;SDS011;1453;42.708;23.282;2023-02-15T03:54:47;38.63;;;22.80;;
2888;SDS011;1453;42.708;23.282;2023-02-15T04:00:16;38.13;;;22.73;;
2888;SDS011;1453;42.708;23.282;2023-02-15T04:05:44;39.58;;;22.38;;
2888;SDS011;1453;42.708;23.282;2023-02-15T04:08:11;44.05;;;24.52;;
2888;SDS011;1453;42.708;23.282;2023-02-15T04:10:37;45.20;;;24.55;;
2888;SDS011;1453;42.708;23.282;2023-02-15T04:13:19;41.63;;;22.27;;
2888;SDS011;1453;42.708;23.282;2023-02-15T04:15:46;42.40;;;24.90;;
2888;SDS011;1453;42.708;23.282;2023-02-15T04:18:34;40.35;;;23.00;;
2888;SDS011;1453;42.708;23.282;2023-02-15T04:21:27;38.78;;;21.73;;
2888;SDS011;1453;42.708;23.282;2023-02-15T04:24:14;39.45;;;22.13;;
2888;SDS011;1453;42.708;23.282;2023-02-15T04:26:59;42.88;;;23.13;;
2888;SDS011;1453;42.708;23.282;2023-02-15T04:29:26;40.38;;;23.63;;
2888;SDS011;1453;42.708;23.282;2023-02-15T04:31:53;37.92;;;20.80;;
2888;SDS011;1453;42.708;23.282;2023-02-15T04:34:26;45.72;;;25.02;;
2888;SDS011;1453;42.708;23.282;2023-02-15T04:36:52;45.57;;;24.27;;
2888;SDS011;1453;42.708;23.282;2023-02-15T04:39:18;50.27;;;27.53;;
2888;SDS011;1453;42.708;23.282;2023-02-15T04:41:44;52.90;;;28.23;;
2888;SDS011;1453;42.708;23.282;2023-02-15T04:44:11;45.22;;;25.02;;
2888;SDS011;1453;42.708;23.282;2023-02-15T04:46:37;40.10;;;24.73;;
2888;SDS011;1453;42.708;23.282;2023-02-15T04:49:03;55.22;;;27.48;;
2888;SDS011;1453;42.708;23.282;2023-02-15T04:51:28;39.90;;;21.00;;
2888;SDS011;1453;42.708;23.282;2023-02-15T04:53:54;50.33;;;24.50;;
2888;SDS011;1453;42.708;23.282;2023-02-15T04:56:21;42.33;;;25.00;;
2888;SDS011;1453;42.708;23.282;2023-02-15T04:58:47;42.25;;;23.80;;
2888;SDS011;1453;42.708;23.282;2023-02-15T05:01:14;44.05;;;22.17;;
2888;SDS011;1453;42.708;23.282;2023-02-15T05:03:40;41.10;;;23.45;;
2888;SDS011;1453;42.708;23.282;2023-02-15T05:06:06;44.40;;;23.70;;
2888;SDS011;1453;42.708;23.282;2023-02-15T05:08:31;46.67;;;25.50;;
2888;SDS011;1453;42.708;23.282;2023-02-15T05:10:57;41.73;;;23.67;;
2888;SDS011;1453;42.708;23.282;2023-02-15T05:13:24;39.40;;;23.37;;
2888;SDS011;1453;42.708;23.282;2023-02-15T05:15:50;43.92;;;23.67;;
2888;SDS011;1453;42.708;23.282;2023-02-15T05:18:18;39.45;;;18.75;;
2888;SDS011;1453;42.708;23.282;2023-02-15T05:20:45;45.78;;;23.70;;
2888;SDS011;1453;42.708;23.282;2023-02-15T05:23:12;46.30;;;24.15;;
2888;SDS011;1453;42.708;23.282;2023-02-15T05:25:38;42.17;;;22.47;;
2888;SDS011;1453;42.708;23.282;2023-02-15T05:28:23;43.40;;;23.02;;
2888;SDS011;1453;42.708;23.282;2023-02-15T05:31:14;43.85;;;23.33;;
2888;SDS011;1453;42.708;23.282;2023-02-15T05:33:40;45.72;;;24.95;;
2888;SDS011;1453;42.708;23.282;2023-02-15T05:36:06;50.00;;;21.00;;
2888;SDS011;1453;42.708;23.282;2023-02-15T05:38:33;43.15;;;23.20;;
2888;SDS011;1453;42.708;23.282;2023-02-15T05:40:59;44.85;;;24.38;;
2888;SDS011;1453;42.708;23.282;2023-02-15T05:43:25;31.07;;;15.60;;
2888;SDS011;1453;42.708;23.282;2023-02-15T05:45:52;44.55;;;23.90;;
2888;SDS011;1453;42.708;23.282;2023-02-15T05:48:20;49.22;;;25.95;;
2888;SDS011;1453;42.708;23.282;2023-02-15T05:53:43;37.60;;;22.33;;
2888;SDS011;1453;42.708;23.282;2023-02-15T05:56:09;43.73;;;25.13;;
2888;SDS011;1453;42.708;23.282;2023-02-15T05:58:37;43.95;;;24.58;;
2888;SDS011;1453;42.708;23.282;2023-02-15T06:01:09;47.00;;;25.00;;
2888;SDS011;1453;42.708;23.282;2023-02-15T06:03:38;42.03;;;23.13;;
2888;SDS011;1453;42.708;23.282;2023-02-15T06:06:04;43.60;;;24.30;;
2888;SDS011;1453;42.708;23.282;2023-02-15T06:08:31;39.85;;;23.45;;
2888;SDS011;1453;42.708;23.282;2023-02-15T06:10:58;44.35;;;24.65;;
2888;SDS011;1453;42.708;23.282;2023-02-15T06:13:25;41.75;;;20.33;;
2888;SDS011;1453;42.708;23.282;2023-02-15T06:15:50;33.55;;;19.73;;
2888;SDS011;1453;42.708;23.282;2023-02-15T06:18:16;22.93;;;13.60;;
2888;SDS011;1453;42.708;23.282;2023-02-15T06:20:42;37.63;;;20.50;;
2888;SDS011;1453;42.708;23.282;2023-02-15T06:23:11;45.83;;;22.42;;
2888;SDS011;1453;42.708;23.282;2023-02-15T06:25:37;24.45;;;11.77;;
2888;SDS011;1453;42.708;23.282;2023-02-15T06:28:03;42.33;;;23.00;;
2888;SDS011;1453;42.708;23.282;2023-02-15T06:30:29;38.97;;;21.88;;
2888;SDS011;1453;42.708;23.282;2023-02-15T06:32:55;41.00;;;23.53;;
2888;SDS011;1453;42.708;23.282;2023-02-15T06:35:21;39.95;;;23.63;;
2888;SDS011;1453;42.708;23.282;2023-02-15T06:37:47;36.50;;;21.90;;
2888;SDS011;1453;42.708;23.282;2023-02-15T06:40:14;37.70;;;22.25;;
2888;SDS011;1453;42.708;23.282;2023-02-15T06:42:43;39.05;;;22.85;;
2888;SDS011;1453;42.708;23.282;2023-02-15T06:45:09;38.30;;;22.08;;
2888;SDS011;1453;42.708;23.282;2023-02-15T06:47:36;40.25;;;22.40;;
2888;SDS011;1453;42.708;23.282;2023-02-15T06:50:03;37.38;;;22.25;;
2888;SDS011;1453;42.708;23.282;2023-02-15T06:52:30;38.55;;;22.15;;
2888;SDS011;1453;42.708;23.282;2023-02-15T06:54:56;36.77;;;22.13;;
2888;SDS011;1453;42.708;23.282;2023-02-15T06:57:22;33.23;;;20.40;;
2888;SDS011;1453;42.708;23.282;2023-02-15T06:59:48;41.70;;;22.47;;
2888;SDS011;1453;42.708;23.282;2023-02-15T07:02:14;40.90;;;22.23;;
2888;SDS011;1453;42.708;23.282;2023-02-15T07:04:40;33.55;;;21.00;;
2888;SDS011;1453;42.708;23.282;2023-02-15T07:07:09;25.52;;;12.35;;
2888;SDS011;1453;42.708;23.282;2023-02-15T07:09:36;34.20;;;21.17;;
2888;SDS011;1453;42.708;23.282;2023-02-15T07:12:05;36.72;;;19.23;;
2888;SDS011;1453;42.708;23.282;2023-02-15T07:14:50;36.13;;;19.88;;
2888;SDS011;1453;42.708;23.282;2023-02-15T07:17:16;38.50;;;21.42;;
2888;SDS011;1453;42.708;23.282;2023-02-15T07:19:42;39.38;;;20.13;;
2888;SDS011;1453;42.708;23.282;2023-02-15T07:22:08;34.80;;;20.80;;
2888;SDS011;1453;42.708;23.282;2023-02-15T07:24:34;32.53;;;20.57;;
2888;SDS011;1453;42.708;23.282;2023-02-15T07:27:00;37.23;;;21.40;;
2888;SDS011;1453;42.708;23.282;2023-02-15T07:29:26;35.53;;;20.30;;
2888;SDS011;1453;42.708;23.282;2023-02-15T07:31:51;34.60;;;19.40;;
2888;SDS011;1453;42.708;23.282;2023-02-15T07:34:17;28.40;;;17.40;;
2888;SDS011;1453;42.708;23.282;2023-02-15T07:36:43;34.83;;;17.90;;
2888;SDS011;1453;42.708;23.282;2023-02-15T07:39:09;32.88;;;18.75;;
2888;SDS011;1453;42.708;23.282;2023-02-15T07:41:35;30.95;;;19.90;;
2888;SDS011;1453;42.708;23.282;2023-02-15T07:44:04;32.73;;;18.73;;
2888;SDS011;1453;42.708;23.282;2023-02-15T07:46:30;29.50;;;17.45;;
2888;SDS011;1453;42.708;23.282;2023-02-15T07:48:56;30.57;;;18.80;;
2888;SDS011;1453;42.708;23.282;2023-02-15T07:51:22;34.70;;;20.20;;
2888;SDS011;1453;42.708;23.282;2023-02-15T07:53:48;32.97;;;19.90;;
2888;SDS011;1453;42.708;23.282;2023-02-15T07:56:16;31.13;;;18.23;;
2888;SDS011;1453;42.708;23.282;2023-02-15T07:58:42;29.87;;;17.93;;
2888;SDS011;1453;42.708;23.282;2023-02-15T08:01:18;33.00;;;20.42;;
2888;SDS011;1453;42.708;23.282;2023-02-15T08:03:44;32.35;;;18.42;;
2888;SDS011;1453;42.708;23.282;2023-02-15T08:06:10;33.05;;;20.40;;
2888;SDS011;1453;42.708;23.282;2023-02-15T08:08:38;30.52;;;17.35;;
2888;SDS011;1453;42.708;23.282;2023-02-15T08:13:56;22.70;;;12.80;;
2888;SDS011;1453;42.708;23.282;2023-02-15T08:16:37;30.83;;;16.30;;
2888;SDS011;1453;42.708;23.282;2023-02-15T08:19:14;26.60;;;16.25;;
2888;SDS011;1453;42.708;23.282;2023-02-15T08:21:47;29.05;;;17.35;;
2888;SDS011;1453;42.708;23.282;2023-02-15T08:24:33;42.22;;;17.90;;
2888;SDS011;1453;42.708;23.282;2023-02-15T08:27:04;29.48;;;16.98;;
2888;SDS011;1453;42.708;23.282;2023-02-15T08:29:33;21.35;;;13.45;;
2888;SDS011;1453;42.708;23.282;2023-02-15T08:32:05;27.85;;;15.45;;
2888;SDS011;1453;42.708;23.282;2023-02-15T08:34:35;32.10;;;17.05;;
2888;SDS011;1453;42.708;23.282;2023-02-15T08:37:04;28.58;;;17.23;;
2888;SDS011;1453;42.708;23.282;2023-02-15T08:39:31;28.73;;;17.35;;
2888;SDS011;1453;42.708;23.282;2023-02-15T08:41:57;29.13;;;17.20;;
2888;SDS011;1453;42.708;23.282;2023-02-15T08:44:23;23.98;;;13.45;;
2888;SDS011;1453;42.708;23.282;2023-02-15T08:46:49;25.10;;;15.73;;
2888;SDS011;1453;42.708;23.282;2023-02-15T08:49:16;24.73;;;15.93;;
2888;SDS011;1453;42.708;23.282;2023-02-15T08:51:45;27.92;;;14.48;;
2888;SDS011;1453;42.708;23.282;2023-02-15T08:54:12;29.15;;;16.45;;
2888;SDS011;1453;42.708;23.282;2023-02-15T08:56:42;27.42;;;17.70;;
2888;SDS011;1453;42.708;23.282;2023-02-15T08:59:14;30.70;;;18.98;;
2888;SDS011;1453;42.708;23.282;2023-02-15T09:01:42;27.48;;;18.20;;
2888;SDS011;1453;42.708;23.282;2023-02-15T09:04:09;27.45;;;17.25;;
2888;SDS011;1453;42.708;23.282;2023-02-15T09:06:36;31.85;;;16.85;;
2888;SDS011;1453;42.708;23.282;2023-02-15T09:09:03;23.27;;;13.30;;
2888;SDS011;1453;42.708;23.282;2023-02-15T09:11:32;24.80;;;16.15;;
2888;SDS011;1453;42.708;23.282;2023-02-15T09:14:07;24.73;;;15.75;;
2888;SDS011;1453;42.708;23.282;2023-02-15T09:16:38;25.33;;;15.10;;
2888;SDS011;1453;42.708;23.282;2023-02-15T09:19:06;26.02;;;16.45;;
2888;SDS011;1453;42.708;23.282;2023-02-15T09:21:34;26.92;;;15.55;;
2888;SDS011;1453;42.708;23.282;2023-02-15T09:24:04;25.58;;;14.35;;
2888;SDS011;1453;42.708;23.282;2023-02-15T09:26:39;31.48;;;17.55;;
2888;SDS011;1453;42.708;23.282;2023-02-15T09:29:07;35.47;;;17.30;;
2888;SDS011;1453;42.708;23.282;2023-02-15T09:31:42;28.33;;;14.75;;
2888;SDS011;1453;42.708;23.282;2023-02-15T09:34:14;23.38;;;15.95;;
2888;SDS011;1453;42.708;23.282;2023-02-15T09:36:43;28.33;;;17.92;;
2888;SDS011;1453;42.708;23.282;2023-02-15T10:04:17;27.95;;;18.85;;
2888;SDS011;1453;42.708;23.282;2023-02-15T10:15:44;24.42;;;17.52;;
2888;SDS011;1453;42.708;23.282;2023-02-15T10:26:47;27.15;;;16.08;;
2888;SDS011;1453;42.708;23.282;2023-02-15T10:34:37;27.40;;;16.92;;
2888;SDS011;1453;42.708;23.282;2023-02-15T10:43:20;28.08;;;17.70;;
2888;SDS011;1453;42.708;23.282;2023-02-15T10:58:26;25.33;;;17.57;;
2888;SDS011;1453;42.708;23.282;2023-02-15T11:01:03;27.90;;;17.63;;
2888;SDS011;1453;42.708;23.282;2023-02-15T11:06:39;27.83;;;19.37;;
2888;SDS011;1453;42.708;23.282;2023-02-15T11:09:13;26.30;;;17.93;;
2888;SDS011;1453;42.708;23.282;2023-02-15T11:11:44;24.63;;;16.00;;
2888;SDS011;1453;42.708;23.282;2023-02-15T11:14:15;25.30;;;16.10;;
2888;SDS011;1453;42.708;23.282;2023-02-15T11:16:49;27.83;;;17.07;;
2888;SDS011;1453;42.708;23.282;2023-02-15T11:19:20;26.43;;;17.83;;
2888;SDS011;1453;42.708;23.282;2023-02-15T11:21:55;26.27;;;18.47;;
2888;SDS011;1453;42.708;23.282;2023-02-15T11:24:27;28.87;;;19.30;;
2888;SDS011;1453;42.708;23.282;2023-02-15T11:32:44;29.17;;;20.30;;
2888;SDS011;1453;42.708;23.282;2023-02-15T11:35:26;25.27;;;18.43;;
2888;SDS011;1453;42.708;23.282;2023-02-15T11:38:14;31.77;;;18.53;;
2888;SDS011;1453;42.708;23.282;2023-02-15T11:43:35;26.73;;;19.10;;
2888;SDS011;1453;42.708;23.282;2023-02-15T11:46:10;29.00;;;17.40;;
2888;SDS011;1453;42.708;23.282;2023-02-15T11:48:37;22.57;;;16.80;;
2888;SDS011;1453;42.708;23.282;2023-02-15T11:51:04;24.73;;;15.73;;
2888;SDS011;1453;42.708;23.282;2023-02-15T11:53:33;23.07;;;14.50;;
2888;SDS011;1453;42.708;23.282;2023-02-15T11:56:02;28.63;;;17.63;;
2888;SDS011;1453;42.708;23.282;2023-02-15T11:58:41;22.87;;;16.20;;
2888;SDS011;1453;42.708;23.282;2023-02-15T12:04:08;25.10;;;18.50;;
2888;SDS011;1453;42.708;23.282;2023-02-15T12:07:09;27.63;;;18.30;;
2888;SDS011;1453;42.708;23.282;2023-02-15T12:12:43;24.80;;;16.53;;
2888;SDS011;1453;42.708;23.282;2023-02-15T12:15:10;24.53;;;15.50;;
2888;SDS011;1453;42.708;23.282;2023-02-15T12:22:50;26.40;;;18.83;;
2888;SDS011;1453;42.708;23.282;2023-02-15T12:25:37;28.17;;;19.50;;
2888;SDS011;1453;42.708;23.282;2023-02-15T12:28:40;28.63;;;19.50;;
2888;SDS011;1453;42.708;23.282;2023-02-15T12:31:26;27.03;;;19.80;;
2888;SDS011;1453;42.708;23.282;2023-02-15T12:34:00;25.93;;;18.30;;
2888;SDS011;1453;42.708;23.282;2023-02-15T12:36:29;25.90;;;18.40;;
2888;SDS011;1453;42.708;23.282;2023-02-15T12:41:38;25.87;;;18.13;;
2888;SDS011;1453;42.708;23.282;2023-02-15T12:47:31;21.20;;;15.10;;
2888;SDS011;1453;42.708;23.282;2023-02-15T12:49:40;23.83;;;16.30;;
2888;SDS011;1453;42.708;23.282;2023-02-15T12:52:22;26.73;;;17.50;;
2888;SDS011;1453;42.708;23.282;2023-02-15T12:54:50;24.23;;;18.03;;
2888;SDS011;1453;42.708;23.282;2023-02-15T12:59:58;25.77;;;17.67;;
2888;SDS011;1453;42.708;23.282;2023-02-15T13:02:54;24.30;;;16.97;;
2888;SDS011;1453;42.708;23.282;2023-02-15T13:05:24;23.80;;;17.80;;
2888;SDS011;1453;42.708;23.282;2023-02-15T13:08:21;24.40;;;18.40;;
2888;SDS011;1453;42.708;23.282;2023-02-15T13:11:00;23.80;;;17.97;;
2888;SDS011;1453;42.708;23.282;2023-02-15T13:13:35;24.30;;;17.50;;
2888;SDS011;1453;42.708;23.282;2023-02-15T13:16:16;26.10;;;19.03;;
2888;SDS011;1453;42.708;23.282;2023-02-15T13:18:58;24.17;;;17.30;;
2888;SDS011;1453;42.708;23.282;2023-02-15T13:21:35;23.93;;;17.37;;
2888;SDS011;1453;42.708;23.282;2023-02-15T13:24:10;22.53;;;17.50;;
2888;SDS011;1453;42.708;23.282;2023-02-15T13:26:52;24.00;;;16.60;;
2888;SDS011;1453;42.708;23.282;2023-02-15T13:29:22;25.20;;;18.87;;
2888;SDS011;1453;42.708;23.282;2023-02-15T13:31:54;27.97;;;18.80;;
2888;SDS011;1453;42.708;23.282;2023-02-15T13:40:08;25.00;;;17.90;;
2888;SDS011;1453;42.708;23.282;2023-02-15T13:42:52;26.07;;;16.73;;
2888;SDS011;1453;42.708;23.282;2023-02-15T13:48:44;27.40;;;19.80;;
2888;SDS011;1453;42.708;23.282;2023-02-15T14:06:00;31.00;;;20.90;;
2888;SDS011;1453;42.708;23.282;2023-02-15T14:12:41;25.30;;;18.43;;
2888;SDS011;1453;42.708;23.282;2023-02-15T14:18:35;25.80;;;17.57;;
2888;SDS011;1453;42.708;23.282;2023-02-15T14:29:34;27.77;;;17.17;;
2888;SDS011;1453;42.708;23.282;2023-02-15T14:32:41;28.40;;;20.50;;
2888;SDS011;1453;42.708;23.282;2023-02-15T14:35:20;30.03;;;17.80;;
2888;SDS011;1453;42.708;23.282;2023-02-15T14:46:52;27.30;;;18.10;;
2888;SDS011;1453;42.708;23.282;2023-02-15T14:49:43;32.63;;;20.17;;
2888;SDS011;1453;42.708;23.282;2023-02-15T14:52:09;30.07;;;18.73;;
2888;SDS011;1453;42.708;23.282;2023-02-15T14:59:46;29.25;;;21.10;;
2888;SDS011;1453;42.708;23.282;2023-02-15T15:03:08;26.85;;;18.13;;
2888;SDS011;1453;42.708;23.282;2023-02-15T15:07:52;26.63;;;18.30;;
2888;SDS011;1453;42.708;23.282;2023-02-15T15:12:51;31.93;;;21.47;;
2888;SDS011;1453;42.708;23.282;2023-02-15T15:31:13;31.60;;;19.07;;
2888;SDS011;1453;42.708;23.282;2023-02-15T15:42:49;41.80;;;21.15;;
2888;SDS011;1453;42.708;23.282;2023-02-15T15:45:49;31.50;;;18.15;;
2888;SDS011;1453;42.708;23.282;2023-02-15T15:48:43;36.42;;;22.55;;
2888;SDS011;1453;42.708;23.282;2023-02-15T15:51:10;33.70;;;20.20;;
2888;SDS011;1453;42.708;23.282;2023-02-15T15:53:52;38.90;;;22.88;;
2888;SDS011;1453;42.708;23.282;2023-02-15T15:56:20;39.92;;;22.90;;
2888;SDS011;1453;42.708;23.282;2023-02-15T15:58:56;39.70;;;20.25;;
2888;SDS011;1453;42.708;23.282;2023-02-15T16:01:27;36.67;;;21.83;;
2888;SDS011;1453;42.708;23.282;2023-02-15T16:03:59;42.70;;;23.73;;
2888;SDS011;1453;42.708;23.282;2023-02-15T16:06:35;42.65;;;23.85;;
2888;SDS011;1453;42.708;23.282;2023-02-15T16:11:47;30.75;;;18.95;;
2888;SDS011;1453;42.708;23.282;2023-02-15T16:16:51;38.90;;;22.75;;
2888;SDS011;1453;42.708;23.282;2023-02-15T16:19:22;37.90;;;21.30;;
2888;SDS011;1453;42.708;23.282;2023-02-15T16:21:53;38.83;;;21.08;;
2888;SDS011;1453;42.708;23.282;2023-02-15T16:33:13;39.60;;;22.52;;
2888;SDS011;1453;42.708;23.282;2023-02-15T16:35:52;40.58;;;23.33;;
2888;SDS011;1453;42.708;23.282;2023-02-15T16:38:24;38.78;;;21.98;;
2888;SDS011;1453;42.708;23.282;2023-02-15T16:41:10;37.97;;;23.20;;
2888;SDS011;1453;42.708;23.282;2023-02-15T16:43:47;37.17;;;21.38;;
2888;SDS011;1453;42.708;23.282;2023-02-15T16:46:24;40.47;;;23.30;;
2888;SDS011;1453;42.708;23.282;2023-02-15T16:48:57;35.08;;;20.77;;
2888;SDS011;1453;42.708;23.282;2023-02-15T16:51:30;42.20;;;22.10;;
2888;SDS011;1453;42.708;23.282;2023-02-15T16:54:00;34.90;;;20.20;;
2888;SDS011;1453;42.708;23.282;2023-02-15T16:56:32;43.35;;;23.13;;
2888;SDS011;1453;42.708;23.282;2023-02-15T16:58:59;41.40;;;22.40;;
2888;SDS011;1453;42.708;23.282;2023-02-15T17:01:27;39.30;;;22.77;;
2888;SDS011;1453;42.708;23.282;2023-02-15T17:07:03;41.30;;;23.52;;
2888;SDS011;1453;42.708;23.282;2023-02-15T17:15:36;40.88;;;22.23;;
2888;SDS011;1453;42.708;23.282;2023-02-15T17:21:11;41.08;;;23.85;;
2888;SDS011;1453;42.708;23.282;2023-02-15T17:23:46;43.03;;;22.65;;
2888;SDS011;1453;42.708;23.282;2023-02-15T17:26:17;42.70;;;23.15;;
2888;SDS011;1453;42.708;23.282;2023-02-15T17:28:55;47.45;;;25.35;;
2888;SDS011;1453;42.708;23.282;2023-02-15T17:31:25;38.90;;;23.02;;
2888;SDS011;1453;42.708;23.282;2023-02-15T17:33:56;42.58;;;23.05;;
2888;SDS011;1453;42.708;23.282;2023-02-15T17:36:27;44.20;;;21.75;;
2888;SDS011;1453;42.708;23.282;2023-02-15T17:41:42;41.45;;;22.08;;
2888;SDS011;1453;42.708;23.282;2023-02-15T17:44:09;42.78;;;24.70;;
2888;SDS011;1453;42.708;23.282;2023-02-15T17:46:39;47.28;;;22.83;;
2888;SDS011;1453;42.708;23.282;2023-02-15T17:49:05;41.42;;;23.05;;
2888;SDS011;1453;42.708;23.282;2023-02-15T17:51:31;42.20;;;23.00;;
2888;SDS011;1453;42.708;23.282;2023-02-15T17:54:00;42.90;;;23.85;;
2888;SDS011;1453;42.708;23.282;2023-02-15T17:56:48;49.90;;;22.50;;
2888;SDS011;1453;42.708;23.282;2023-02-15T17:59:14;40.20;;;22.37;;
2888;SDS011;1453;42.708;23.282;2023-02-15T18:01:42;36.47;;;22.50;;
2888;SDS011;1453;42.708;23.282;2023-02-15T18:04:31;43.67;;;22.80;;
2888;SDS011;1453;42.708;23.282;2023-02-15T18:07:18;34.35;;;21.05;;
2888;SDS011;1453;42.708;23.282;2023-02-15T18:10:24;40.85;;;20.70;;
2888;SDS011;1453;42.708;23.282;2023-02-15T18:13:08;29.10;;;19.33;;
2888;SDS011;1453;42.708;23.282;2023-02-15T18:15:33;36.07;;;20.70;;
2888;SDS011;1453;42.708;23.282;2023-02-15T18:17:59;39.13;;;21.60;;
2888;SDS011;1453;42.708;23.282;2023-02-15T18:20:30;39.00;;;20.50;;
2888;SDS011;1453;42.708;23.282;2023-02-15T18:23:04;38.10;;;22.83;;
2888;SDS011;1453;42.708;23.282;2023-02-15T18:25:30;39.78;;;21.13;;
2888;SDS011;1453;42.708;23.282;2023-02-15T18:27:56;38.43;;;22.77;;
2888;SDS011;1453;42.708;23.282;2023-02-15T18:30:22;50.90;;;23.17;;
2888;SDS011;1453;42.708;23.282;2023-02-15T18:32:51;44.17;;;26.38;;
2888;SDS011;1453;42.708;23.282;2023-02-15T18:35:21;42.08;;;25.42;;
2888;SDS011;1453;42.708;23.282;2023-02-15T18:37:53;51.70;;;25.20;;
2888;SDS011;1453;42.708;23.282;2023-02-15T18:40:20;43.30;;;25.02;;
2888;SDS011;1453;42.708;23.282;2023-02-15T18:42:49;43.38;;;24.88;;
2888;SDS011;1453;42.708;23.282;2023-02-15T18:45:16;41.60;;;22.70;;
2888;SDS011;1453;42.708;23.282;2023-02-15T18:47:49;37.55;;;22.38;;
2888;SDS011;1453;42.708;23.282;2023-02-15T18:50:16;42.63;;;23.77;;
2888;SDS011;1453;42.708;23.282;2023-02-15T18:52:44;35.65;;;20.13;;
2888;SDS011;1453;42.708;23.282;2023-02-15T18:57:47;35.55;;;20.52;;
2888;SDS011;1453;42.708;23.282;2023-02-15T19:00:16;36.25;;;22.08;;
2888;SDS011;1453;42.708;23.282;2023-02-15T19:02:52;36.72;;;20.45;;
2888;SDS011;1453;42.708;23.282;2023-02-15T19:05:19;34.05;;;22.17;;
2888;SDS011;1453;42.708;23.282;2023-02-15T19:07:47;44.22;;;23.75;;
2888;SDS011;1453;42.708;23.282;2023-02-15T19:10:15;36.88;;;20.30;;
2888;SDS011;1453;42.708;23.282;2023-02-15T19:12:47;32.63;;;15.55;;
2888;SDS011;1453;42.708;23.282;2023-02-15T19:15:15;37.83;;;21.75;;